Time;durP1;ratioP1;P1;durP2;ratioP2;P2;SDS_P1;SDS_P2;PMS_P1;PMS_P2;Temp;Humidity;BMP_temperature;BMP_pressure;BME280_temperature;BME280_humidity;BME280_pressure;Samples;Min_cycle;Max_cycle;Signal;HPM_P1;HPM_P2
2022/04/15 00:00:12;;;;;;;13.87;4.80;;;;;;;;;;5047525;28;20441;-74
2022/04/15 00:02:38;;;;;;;8.03;5.27;;;;;;;;;;5043610;28;20426;-73
2022/04/15 00:05:29;;;;;;;7.57;5.40;;;;;;;;;;5042364;28;20942;-74
2022/04/15 00:07:51;;;;;;;6.27;4.70;;;;;;;;;;5045524;28;20438;-73
2022/04/15 00:10:17;;;;;;;5.70;5.30;;;;;;;;;;5045978;28;20603;-73
2022/04/15 00:12:43;;;;;;;10.87;6.40;;;;;;;;;;5042380;28;20518;-74
2022/04/15 00:15:09;;;;;;;7.17;5.73;;;;;;;;;;5043040;28;20557;-75
2022/04/15 00:17:35;;;;;;;9.43;6.00;;;;;;;;;;5047686;28;20450;-74
2022/04/15 00:20:03;;;;;;;3.97;3.60;;;;;;;;;;5047486;28;20975;-76
2022/04/15 00:22:29;;;;;;;5.53;5.20;;;;;;;;;;5045432;28;20438;-73
2022/04/15 00:24:55;;;;;;;10.57;5.77;;;;;;;;;;5040975;28;20461;-73
2022/04/15 00:27:21;;;;;;;11.73;7.50;;;;;;;;;;5044931;28;20446;-74
2022/04/15 00:29:46;;;;;;;5.13;4.80;;;;;;;;;;5044810;28;20543;-73
2022/04/15 00:32:12;;;;;;;4.90;4.63;;;;;;;;;;5045773;28;20430;-74
2022/04/15 00:34:38;;;;;;;5.77;5.03;;;;;;;;;;5044916;28;20442;-73
2022/04/15 00:37:04;;;;;;;10.00;4.50;;;;;;;;;;5044481;28;20430;-74
2022/04/15 00:39:31;;;;;;;6.70;6.10;;;;;;;;;;5045017;28;20846;-73
2022/04/15 00:41:58;;;;;;;5.43;5.00;;;;;;;;;;5046629;28;20455;-74
2022/04/15 00:44:24;;;;;;;8.43;6.27;;;;;;;;;;5043439;28;20442;-73
2022/04/15 00:46:50;;;;;;;10.63;5.77;;;;;;;;;;5048308;28;20457;-73
2022/04/15 00:49:16;;;;;;;10.43;9.50;;;;;;;;;;5049422;28;20509;-73
2022/04/15 00:51:42;;;;;;;11.43;7.93;;;;;;;;;;5047512;28;20951;-73
2022/04/15 00:54:11;;;;;;;6.90;6.50;;;;;;;;;;5051472;28;20434;-74
2022/04/15 00:56:37;;;;;;;6.63;4.90;;;;;;;;;;5045128;28;20895;-74
2022/04/15 00:59:04;;;;;;;5.10;4.90;;;;;;;;;;5050890;28;20429;-73
2022/04/15 01:01:30;;;;;;;7.63;4.60;;;;;;;;;;5049809;28;20720;-73
2022/04/15 01:03:57;;;;;;;3.93;3.63;;;;;;;;;;5046315;28;20434;-73
2022/04/15 01:06:23;;;;;;;6.40;4.33;;;;;;;;;;5045227;28;20453;-76
2022/04/15 01:08:50;;;;;;;4.57;3.87;;;;;;;;;;5045469;28;20497;-74
2022/04/15 01:11:18;;;;;;;10.70;5.30;;;;;;;;;;5042695;28;20460;-74
2022/04/15 01:13:46;;;;;;;8.63;5.17;;;;;;;;;;5045659;28;20434;-73
2022/04/15 01:16:12;;;;;;;4.50;4.20;;;;;;;;;;5046794;28;20490;-73
2022/04/15 01:18:39;;;;;;;10.70;5.30;;;;;;;;;;5047662;28;20491;-73
2022/04/15 01:21:05;;;;;;;6.77;4.80;;;;;;;;;;5047560;28;20488;-73
2022/04/15 01:23:31;;;;;;;8.87;4.50;;;;;;;;;;5051347;28;20470;-74
2022/04/15 01:25:57;;;;;;;8.03;4.13;;;;;;;;;;5049389;28;20441;-74
2022/04/15 01:28:23;;;;;;;5.60;5.13;;;;;;;;;;5046718;28;20431;-73
2022/04/15 01:30:50;;;;;;;10.10;4.40;;;;;;;;;;5047666;28;20528;-73
2022/04/15 01:33:16;;;;;;;5.70;5.20;;;;;;;;;;5044963;28;20434;-74
2022/04/15 01:35:42;;;;;;;5.83;5.33;;;;;;;;;;5050878;28;20844;-74
2022/04/15 01:38:13;;;;;;;7.27;6.60;;;;;;;;;;5045964;28;20985;-74
2022/04/15 01:40:39;;;;;;;6.40;4.90;;;;;;;;;;5049542;28;20443;-73
2022/04/15 01:43:05;;;;;;;8.60;5.30;;;;;;;;;;5050089;28;20460;-73
2022/04/15 01:45:31;;;;;;;7.07;5.70;;;;;;;;;;5045628;28;20476;-74
2022/04/15 01:47:57;;;;;;;7.83;7.03;;;;;;;;;;5049658;28;20477;-73
2022/04/15 01:50:23;;;;;;;6.37;5.97;;;;;;;;;;5050812;28;20486;-74
2022/04/15 01:52:49;;;;;;;8.23;7.43;;;;;;;;;;5046143;28;20462;-75
2022/04/15 01:55:15;;;;;;;10.30;6.03;;;;;;;;;;5047718;28;20879;-73
2022/04/15 01:57:41;;;;;;;17.73;8.13;;;;;;;;;;5045884;28;20981;-74
2022/04/15 02:00:08;;;;;;;7.20;6.60;;;;;;;;;;5049386;28;20426;-74
2022/04/15 02:02:34;;;;;;;7.60;6.60;;;;;;;;;;5046988;28;20560;-74
2022/04/15 02:05:00;;;;;;;9.17;6.90;;;;;;;;;;5040340;28;20451;-73
2022/04/15 02:07:26;;;;;;;11.90;6.57;;;;;;;;;;5047822;28;21005;-73
2022/04/15 02:09:52;;;;;;;8.57;6.77;;;;;;;;;;5044707;28;20522;-73
2022/04/15 02:12:18;;;;;;;7.57;6.60;;;;;;;;;;5047683;28;20867;-74
2022/04/15 02:14:46;;;;;;;8.07;7.33;;;;;;;;;;5048857;28;20469;-73
2022/04/15 02:17:12;;;;;;;6.93;6.37;;;;;;;;;;5045392;28;20445;-73
2022/04/15 02:19:37;;;;;;;9.47;7.37;;;;;;;;;;5043947;28;20434;-73
2022/04/15 02:22:04;;;;;;;7.93;6.90;;;;;;;;;;5050460;28;20446;-73
2022/04/15 02:24:30;;;;;;;10.83;6.63;;;;;;;;;;5048434;28;20896;-73
2022/04/15 02:26:56;;;;;;;8.40;6.80;;;;;;;;;;5043805;28;20443;-73
2022/04/15 02:29:22;;;;;;;7.20;6.60;;;;;;;;;;5046206;28;20474;-73
2022/04/15 02:31:48;;;;;;;12.60;7.17;;;;;;;;;;5047514;28;20445;-74
2022/04/15 02:34:14;;;;;;;7.30;6.70;;;;;;;;;;5044889;28;21428;-73
2022/04/15 02:36:40;;;;;;;10.17;7.63;;;;;;;;;;5047557;28;20438;-74
2022/04/15 02:39:10;;;;;;;10.70;7.10;;;;;;;;;;5046424;28;20466;-73
2022/04/15 02:41:36;;;;;;;6.80;6.40;;;;;;;;;;5046617;28;20882;-73
2022/04/15 02:44:03;;;;;;;11.30;8.30;;;;;;;;;;5046785;28;20434;-73
2022/04/15 02:46:29;;;;;;;7.77;6.90;;;;;;;;;;5049416;28;20491;-73
2022/04/15 02:48:55;;;;;;;7.93;6.43;;;;;;;;;;5048137;28;20487;-74
2022/04/15 02:51:21;;;;;;;6.97;6.33;;;;;;;;;;5044135;28;20453;-73
2022/04/15 02:53:46;;;;;;;7.53;6.80;;;;;;;;;;5045501;28;20430;-73
2022/04/15 02:56:12;;;;;;;23.87;8.37;;;;;;;;;;5045357;28;20454;-74
2022/04/15 02:58:38;;;;;;;7.87;7.30;;;;;;;;;;5046854;28;20447;-73
2022/04/15 03:01:04;;;;;;;8.70;6.77;;;;;;;;;;5040337;28;20449;-74
2022/04/15 03:03:30;;;;;;;10.03;8.00;;;;;;;;;;5046462;28;20579;-74
2022/04/15 03:05:56;;;;;;;8.40;7.60;;;;;;;;;;5045334;28;20441;-74
2022/04/15 03:08:22;;;;;;;14.07;6.87;;;;;;;;;;5047126;28;20426;-73
2022/04/15 03:10:48;;;;;;;9.53;8.07;;;;;;;;;;5046459;28;20790;-73
2022/04/15 03:13:16;;;;;;;8.80;7.37;;;;;;;;;;5044932;28;20960;-74
2022/04/15 03:15:42;;;;;;;6.67;5.90;;;;;;;;;;5044825;28;20460;-73
2022/04/15 03:18:08;;;;;;;13.67;7.80;;;;;;;;;;5049005;28;20426;-73
2022/04/15 03:20:34;;;;;;;8.70;7.53;;;;;;;;;;5040982;28;20442;-73
2022/04/15 03:22:59;;;;;;;8.23;7.20;;;;;;;;;;5044913;28;20446;-74
2022/04/15 03:25:25;;;;;;;7.70;6.87;;;;;;;;;;5047769;28;20861;-74
2022/04/15 03:27:52;;;;;;;11.87;8.77;;;;;;;;;;5045913;28;21701;-73
2022/04/15 03:30:18;;;;;;;13.03;8.40;;;;;;;;;;5044868;28;20485;-74
2022/04/15 03:32:48;;;;;;;8.27;7.40;;;;;;;;;;5038960;28;20450;-74
2022/04/15 03:35:20;;;;;;;10.80;8.60;;;;;;;;;;5045488;28;20454;-74
2022/04/15 03:37:46;;;;;;;11.60;9.07;;;;;;;;;;5043440;28;21090;-73
2022/04/15 03:40:12;;;;;;;12.27;8.60;;;;;;;;;;5043528;28;20434;-73
2022/04/15 03:42:44;;;;;;;14.93;8.60;;;;;;;;;;5044080;28;20525;-74
2022/04/15 03:45:11;;;;;;;11.83;9.43;;;;;;;;;;5037029;28;20446;-73
2022/04/15 03:47:37;;;;;;;9.07;8.00;;;;;;;;;;5047341;28;20984;-74
2022/04/15 03:50:03;;;;;;;13.50;8.80;;;;;;;;;;5049100;28;20489;-74
2022/04/15 03:52:31;;;;;;;9.03;8.20;;;;;;;;;;5046296;28;20434;-74
2022/04/15 03:54:58;;;;;;;11.27;8.90;;;;;;;;;;5038023;28;20450;-73
2022/04/15 03:57:24;;;;;;;11.60;8.73;;;;;;;;;;5047886;28;20430;-74
2022/04/15 03:59:50;;;;;;;8.70;7.90;;;;;;;;;;5047658;28;20564;-73
2022/04/15 04:02:16;;;;;;;9.77;8.50;;;;;;;;;;5046172;28;20459;-73
2022/04/15 04:04:42;;;;;;;14.90;8.50;;;;;;;;;;5023960;28;20448;-74
2022/04/15 04:07:10;;;;;;;9.53;8.63;;;;;;;;;;5041549;28;20441;-74
2022/04/15 04:09:36;;;;;;;14.70;8.47;;;;;;;;;;5045655;28;20844;-74
2022/04/15 04:12:02;;;;;;;9.23;8.03;;;;;;;;;;5046414;28;20434;-73
2022/04/15 04:14:28;;;;;;;12.47;9.40;;;;;;;;;;5039523;28;20443;-73
2022/04/15 04:16:54;;;;;;;10.60;9.60;;;;;;;;;;5040561;28;20949;-73
2022/04/15 04:19:20;;;;;;;12.20;10.00;;;;;;;;;;5047782;28;20813;-74
2022/04/15 04:21:46;;;;;;;12.87;9.80;;;;;;;;;;5042543;28;20467;-73
2022/04/15 04:24:12;;;;;;;13.63;8.43;;;;;;;;;;5049479;28;20533;-73
2022/04/15 04:26:38;;;;;;;16.17;9.77;;;;;;;;;;5041316;28;20444;-73
2022/04/15 04:29:04;;;;;;;12.07;9.27;;;;;;;;;;5044402;28;20496;-73
2022/04/15 04:31:30;;;;;;;14.13;9.70;;;;;;;;;;5048063;28;20790;-73
2022/04/15 04:33:56;;;;;;;14.97;10.30;;;;;;;;;;5049144;28;20813;-73
2022/04/15 04:36:22;;;;;;;11.20;8.20;;;;;;;;;;5051634;28;20414;-74
2022/04/15 04:38:48;;;;;;;13.77;8.60;;;;;;;;;;5051034;28;20435;-74
2022/04/15 04:41:14;;;;;;;11.97;8.47;;;;;;;;;;5050858;28;20430;-73
2022/04/15 04:43:40;;;;;;;8.33;7.50;;;;;;;;;;5049986;28;20567;-73
2022/04/15 04:46:06;;;;;;;11.27;9.57;;;;;;;;;;5048277;28;20512;-73
2022/04/15 04:48:32;;;;;;;14.70;8.67;;;;;;;;;;5051001;28;20583;-73
2022/04/15 04:50:58;;;;;;;13.50;8.73;;;;;;;;;;5052074;28;20950;-74
2022/04/15 04:53:24;;;;;;;10.00;9.00;;;;;;;;;;5049565;28;20560;-73
2022/04/15 04:55:50;;;;;;;12.03;8.80;;;;;;;;;;5044404;28;20529;-73
2022/04/15 04:58:16;;;;;;;11.93;8.53;;;;;;;;;;5050485;28;20521;-73
2022/04/15 05:00:42;;;;;;;11.07;8.83;;;;;;;;;;5048056;28;20430;-74
2022/04/15 05:03:08;;;;;;;7.70;7.00;;;;;;;;;;5048932;28;20430;-73
2022/04/15 05:05:34;;;;;;;9.13;8.23;;;;;;;;;;5049255;28;20465;-74
2022/04/15 05:08:00;;;;;;;9.33;8.30;;;;;;;;;;5050540;28;20537;-74
2022/04/15 05:10:26;;;;;;;12.23;7.73;;;;;;;;;;5051252;28;20482;-73
2022/04/15 05:12:52;;;;;;;13.70;9.87;;;;;;;;;;5047444;28;20418;-73
2022/04/15 05:15:19;;;;;;;9.67;8.67;;;;;;;;;;5046712;28;20453;-72
2022/04/15 05:17:45;;;;;;;9.83;8.93;;;;;;;;;;5046751;28;20958;-73
2022/04/15 05:20:11;;;;;;;20.57;9.43;;;;;;;;;;5051117;28;20442;-73
2022/04/15 05:22:37;;;;;;;9.30;8.40;;;;;;;;;;5047497;28;20434;-73
2022/04/15 05:25:03;;;;;;;9.73;8.83;;;;;;;;;;5045602;28;20450;-73
2022/04/15 05:27:29;;;;;;;9.40;8.50;;;;;;;;;;5047765;28;20438;-75
2022/04/15 05:29:55;;;;;;;14.90;9.23;;;;;;;;;;5048453;28;20501;-74
2022/04/15 05:32:24;;;;;;;14.10;9.43;;;;;;;;;;5050933;28;20525;-73
2022/04/15 05:34:50;;;;;;;9.60;8.60;;;;;;;;;;5048112;28;20455;-75
2022/04/15 05:37:16;;;;;;;13.30;8.93;;;;;;;;;;5042436;28;20657;-77
2022/04/15 05:39:42;;;;;;;9.57;8.57;;;;;;;;;;5044484;28;20991;-74
2022/04/15 05:42:08;;;;;;;9.90;9.10;;;;;;;;;;5048127;28;20506;-74
2022/04/15 05:44:34;;;;;;;13.57;8.93;;;;;;;;;;5044062;28;20886;-73
2022/04/15 05:47:00;;;;;;;13.03;8.60;;;;;;;;;;5047332;28;20526;-74
2022/04/15 05:49:26;;;;;;;9.90;8.50;;;;;;;;;;5048036;28;20856;-74
2022/04/15 05:51:52;;;;;;;9.77;8.87;;;;;;;;;;5045892;28;20488;-76
2022/04/15 05:54:18;;;;;;;9.33;8.53;;;;;;;;;;5048868;28;20470;-76
2022/04/15 05:56:44;;;;;;;12.47;9.77;;;;;;;;;;5042853;28;20458;-78
2022/04/15 05:59:10;;;;;;;9.10;8.30;;;;;;;;;;5045217;28;20505;-74
2022/04/15 06:01:36;;;;;;;12.50;8.10;;;;;;;;;;5047063;28;20496;-74
2022/04/15 06:04:02;;;;;;;11.50;9.00;;;;;;;;;;5047295;28;20842;-77
2022/04/15 06:06:28;;;;;;;12.57;9.23;;;;;;;;;;5048713;28;20438;-74
2022/04/15 06:08:54;;;;;;;13.77;8.23;;;;;;;;;;5043910;28;20471;-74
2022/04/15 06:11:21;;;;;;;9.03;8.13;;;;;;;;;;5034685;28;20490;-74
2022/04/15 06:13:47;;;;;;;10.10;8.13;;;;;;;;;;5040465;28;20430;-74
2022/04/15 06:16:20;;;;;;;11.90;7.80;;;;;;;;;;5048060;28;20449;-74
2022/04/15 06:18:47;;;;;;;7.93;7.43;;;;;;;;;;5046696;28;20436;-72
2022/04/15 06:21:12;;;;;;;8.73;7.90;;;;;;;;;;5045563;28;21010;-74
2022/04/15 06:23:38;;;;;;;11.13;8.30;;;;;;;;;;5044648;28;20521;-74
2022/04/15 06:26:06;;;;;;;11.77;8.43;;;;;;;;;;5049386;28;20442;-73
2022/04/15 06:28:32;;;;;;;11.00;9.07;;;;;;;;;;5050193;28;20426;-74
2022/04/15 06:30:59;;;;;;;8.47;7.70;;;;;;;;;;5045092;28;20799;-74
2022/04/15 06:33:25;;;;;;;13.37;6.80;;;;;;;;;;5045434;28;20938;-74
2022/04/15 06:35:51;;;;;;;10.93;7.60;;;;;;;;;;5048291;28;20452;-74
2022/04/15 06:38:18;;;;;;;11.80;8.30;;;;;;;;;;5048078;28;20434;-81
2022/04/15 06:40:44;;;;;;;8.97;7.20;;;;;;;;;;5047953;28;20427;-75
2022/04/15 06:43:10;;;;;;;11.10;7.63;;;;;;;;;;5047674;28;20456;-74
2022/04/15 06:45:36;;;;;;;7.30;6.70;;;;;;;;;;5041787;28;20458;-73
2022/04/15 06:48:02;;;;;;;11.27;6.70;;;;;;;;;;5042545;28;20506;-73
2022/04/15 06:50:30;;;;;;;7.67;6.90;;;;;;;;;;5048478;28;20512;-74
2022/04/15 06:52:56;;;;;;;8.83;8.03;;;;;;;;;;5045674;28;20450;-75
2022/04/15 06:55:22;;;;;;;9.67;7.67;;;;;;;;;;5046644;28;20791;-75
2022/04/15 06:57:48;;;;;;;7.67;7.10;;;;;;;;;;5047943;28;20457;-73
2022/04/15 07:00:14;;;;;;;6.30;5.90;;;;;;;;;;5048275;28;20446;-73
2022/04/15 07:02:41;;;;;;;8.83;6.97;;;;;;;;;;5048295;28;20699;-73
2022/04/15 07:05:09;;;;;;;7.13;6.47;;;;;;;;;;5047734;28;20434;-73
2022/04/15 07:07:35;;;;;;;7.23;6.50;;;;;;;;;;5046891;28;20434;-74
2022/04/15 07:10:01;;;;;;;8.10;6.80;;;;;;;;;;5048270;28;20518;-75
2022/04/15 07:12:27;;;;;;;7.00;6.50;;;;;;;;;;5047612;28;20481;-73
2022/04/15 07:14:53;;;;;;;6.90;6.30;;;;;;;;;;5047260;28;20500;-74
2022/04/15 07:17:19;;;;;;;6.90;6.40;;;;;;;;;;5043428;28;20442;-73
2022/04/15 07:19:45;;;;;;;7.70;6.90;;;;;;;;;;5041811;28;20430;-75
2022/04/15 07:22:11;;;;;;;13.87;7.67;;;;;;;;;;5047229;28;20474;-73
2022/04/15 07:24:37;;;;;;;6.63;6.13;;;;;;;;;;5048747;28;20434;-73
2022/04/15 07:27:03;;;;;;;7.43;6.80;;;;;;;;;;5043202;28;20973;-74
2022/04/15 07:29:30;;;;;;;8.40;7.80;;;;;;;;;;5046228;28;21004;-73
2022/04/15 07:31:57;;;;;;;15.37;9.07;;;;;;;;;;5047442;28;20434;-73
2022/04/15 07:34:23;;;;;;;7.60;7.00;;;;;;;;;;5048027;28;20550;-74
2022/04/15 07:36:53;;;;;;;11.27;9.17;;;;;;;;;;5047342;28;20521;-73
2022/04/15 07:39:20;;;;;;;10.20;8.67;;;;;;;;;;5044382;28;20524;-74
2022/04/15 07:41:47;;;;;;;8.93;8.10;;;;;;;;;;5047628;28;20437;-76
2022/04/15 07:44:13;;;;;;;8.57;7.67;;;;;;;;;;5048923;28;20431;-77
2022/04/15 07:46:40;;;;;;;8.73;7.90;;;;;;;;;;5047658;28;20422;-74
2022/04/15 07:49:06;;;;;;;10.83;8.43;;;;;;;;;;5043289;28;21017;-73
2022/04/15 07:51:33;;;;;;;10.37;9.33;;;;;;;;;;5048015;28;20437;-74
2022/04/15 07:53:59;;;;;;;11.27;9.40;;;;;;;;;;5046716;28;20457;-73
2022/04/15 07:56:25;;;;;;;10.10;9.10;;;;;;;;;;5044867;28;20868;-74
2022/04/15 07:58:51;;;;;;;7.97;7.37;;;;;;;;;;5043277;28;20530;-73
2022/04/15 08:01:18;;;;;;;11.07;8.40;;;;;;;;;;5047838;28;20434;-73
2022/04/15 08:03:44;;;;;;;8.13;7.33;;;;;;;;;;5045459;28;20445;-74
2022/04/15 08:06:11;;;;;;;8.67;7.93;;;;;;;;;;5045857;28;21661;-74
2022/04/15 08:08:37;;;;;;;8.70;8.00;;;;;;;;;;5042094;28;20437;-73
2022/04/15 08:11:03;;;;;;;9.00;8.27;;;;;;;;;;5041193;28;20439;-73
2022/04/15 08:13:29;;;;;;;8.80;7.80;;;;;;;;;;5046756;28;21036;-73
2022/04/15 08:15:55;;;;;;;8.70;7.90;;;;;;;;;;5046992;28;20450;-73
2022/04/15 08:18:21;;;;;;;8.20;7.60;;;;;;;;;;5049190;28;20460;-73
2022/04/15 08:20:47;;;;;;;7.33;6.73;;;;;;;;;;5047133;28;20426;-73
2022/04/15 08:23:14;;;;;;;10.50;7.67;;;;;;;;;;5048804;28;20429;-73
2022/04/15 08:25:40;;;;;;;6.27;5.77;;;;;;;;;;5048809;28;20997;-74
2022/04/15 08:28:06;;;;;;;8.50;7.67;;;;;;;;;;5047305;28;20933;-73
2022/04/15 08:30:33;;;;;;;8.53;6.80;;;;;;;;;;5046293;28;20488;-74
2022/04/15 08:33:00;;;;;;;6.47;6.07;;;;;;;;;;5046251;28;20413;-73
2022/04/15 08:35:27;;;;;;;8.53;6.27;;;;;;;;;;5048773;28;20422;-73
2022/04/15 08:37:53;;;;;;;8.37;6.20;;;;;;;;;;5049144;28;20418;-74
2022/04/15 08:40:19;;;;;;;6.37;5.43;;;;;;;;;;5048079;28;20551;-74
2022/04/15 08:42:45;;;;;;;7.40;5.30;;;;;;;;;;5044446;28;20510;-76
2022/04/15 08:45:16;;;;;;;5.27;4.97;;;;;;;;;;5044533;28;20899;-73
2022/04/15 08:47:42;;;;;;;6.77;5.33;;;;;;;;;;5047091;28;20460;-73
2022/04/15 08:50:12;;;;;;;5.83;5.53;;;;;;;;;;5049157;28;20480;-76
2022/04/15 08:52:38;;;;;;;5.30;5.00;;;;;;;;;;5045630;28;20952;-73
2022/04/15 08:55:05;;;;;;;12.67;5.80;;;;;;;;;;5049069;28;20422;-75
2022/04/15 08:57:31;;;;;;;4.87;4.63;;;;;;;;;;5046888;28;20458;-74
2022/04/15 08:59:57;;;;;;;4.93;4.63;;;;;;;;;;5048811;28;20418;-74
2022/04/15 09:02:33;;;;;;;4.40;4.13;;;;;;;;;;5046815;28;20503;-75
2022/04/15 09:05:00;;;;;;;4.83;4.53;;;;;;;;;;5048905;28;20446;-74
2022/04/15 09:07:32;;;;;;;4.60;4.23;;;;;;;;;;5047686;28;21007;-74
2022/04/15 09:09:59;;;;;;;5.03;4.17;;;;;;;;;;5049630;28;20504;-73
2022/04/15 09:12:28;;;;;;;4.57;4.17;;;;;;;;;;5045984;28;20441;-76
2022/04/15 09:14:58;;;;;;;4.43;4.10;;;;;;;;;;5044988;28;20426;-73
2022/04/15 09:17:25;;;;;;;3.60;3.50;;;;;;;;;;5051569;28;20422;-74
2022/04/15 09:19:53;;;;;;;4.97;4.57;;;;;;;;;;5050574;28;20438;-75
2022/04/15 09:22:21;;;;;;;4.40;4.10;;;;;;;;;;5048169;28;20466;-74
2022/04/15 09:24:47;;;;;;;3.60;3.50;;;;;;;;;;5048052;28;20450;-76
2022/04/15 09:27:15;;;;;;;4.23;3.90;;;;;;;;;;5047796;28;20446;-76
2022/04/15 09:29:41;;;;;;;4.73;4.47;;;;;;;;;;5051490;28;20493;-75
2022/04/15 09:32:14;;;;;;;4.33;4.07;;;;;;;;;;5048992;28;20871;-76
2022/04/15 09:34:55;;;;;;;3.67;3.37;;;;;;;;;;5045499;28;20529;-73
2022/04/15 09:37:22;;;;;;;3.67;3.43;;;;;;;;;;5049749;28;20447;-77
2022/04/15 09:40:18;;;;;;;4.43;4.20;;;;;;;;;;5051559;28;20434;-78
2022/04/15 09:42:47;;;;;;;4.27;4.03;;;;;;;;;;5047649;28;20803;-77
2022/04/15 09:45:15;;;;;;;5.57;4.67;;;;;;;;;;5045912;28;20446;-77
2022/04/15 09:47:42;;;;;;;4.50;4.10;;;;;;;;;;5050082;28;20545;-73
2022/04/15 09:50:08;;;;;;;5.47;5.00;;;;;;;;;;5045528;28;20539;-78
2022/04/15 09:52:34;;;;;;;6.20;5.30;;;;;;;;;;5047992;28;20462;-75
2022/04/15 09:55:02;;;;;;;7.30;5.50;;;;;;;;;;5042631;28;20450;-74
2022/04/15 09:57:33;;;;;;;6.07;5.40;;;;;;;;;;5049628;28;20449;-76
2022/04/15 10:00:00;;;;;;;4.53;4.43;;;;;;;;;;5044119;28;20977;-75
2022/04/15 10:02:26;;;;;;;9.00;6.10;;;;;;;;;;5046601;28;20462;-76
2022/04/15 10:04:52;;;;;;;5.40;5.17;;;;;;;;;;5049173;28;20419;-74
2022/04/15 10:07:18;;;;;;;5.57;5.20;;;;;;;;;;5048410;28;20438;-73
2022/04/15 10:09:44;;;;;;;9.23;5.87;;;;;;;;;;5049778;28;20984;-74
2022/04/15 10:12:11;;;;;;;9.60;5.50;;;;;;;;;;5046114;28;20439;-74
2022/04/15 10:14:38;;;;;;;5.63;5.03;;;;;;;;;;5050954;28;20449;-74
2022/04/15 10:17:04;;;;;;;6.03;5.63;;;;;;;;;;5045351;28;20810;-77
2022/04/15 10:19:31;;;;;;;6.07;5.60;;;;;;;;;;5046354;28;20455;-75
2022/04/15 10:21:57;;;;;;;7.23;6.50;;;;;;;;;;5047444;28;20443;-73
2022/04/15 10:24:24;;;;;;;7.50;6.70;;;;;;;;;;5046609;28;20449;-75
2022/04/15 10:26:56;;;;;;;8.20;7.20;;;;;;;;;;5050113;28;20438;-75
2022/04/15 10:29:22;;;;;;;5.93;5.40;;;;;;;;;;5050680;28;20489;-77
2022/04/15 10:31:48;;;;;;;5.90;5.30;;;;;;;;;;5044438;28;20434;-73
2022/04/15 10:34:14;;;;;;;6.90;6.30;;;;;;;;;;5047080;28;20477;-73
2022/04/15 10:36:50;;;;;;;6.77;6.10;;;;;;;;;;5048024;28;20489;-73
2022/04/15 10:39:26;;;;;;;6.97;6.57;;;;;;;;;;5044378;28;20437;-73
2022/04/15 10:41:53;;;;;;;8.00;7.27;;;;;;;;;;5046571;28;20528;-73
2022/04/15 10:44:29;;;;;;;8.43;7.73;;;;;;;;;;5046710;28;20426;-74
2022/04/15 10:47:22;;;;;;;8.93;6.53;;;;;;;;;;5049286;28;20449;-74
2022/04/15 10:50:03;;;;;;;6.13;5.73;;;;;;;;;;5049127;28;20561;-74
2022/04/15 10:52:30;;;;;;;8.60;7.80;;;;;;;;;;5049695;28;20874;-74
2022/04/15 10:55:06;;;;;;;8.70;7.47;;;;;;;;;;5048988;28;20446;-72
2022/04/15 10:57:36;;;;;;;7.80;7.07;;;;;;;;;;5049170;28;20803;-76
2022/04/15 11:02:52;;;;;;;6.70;6.30;;;;;;;;;;5046352;28;20505;-75
2022/04/15 11:05:37;;;;;;;12.30;7.63;;;;;;;;;;5045579;28;20461;-73
2022/04/15 11:08:07;;;;;;;8.07;7.30;;;;;;;;;;5039940;28;20438;-74
2022/04/15 11:10:52;;;;;;;8.37;7.57;;;;;;;;;;5043207;28;20842;-73
2022/04/15 11:13:30;;;;;;;9.23;6.90;;;;;;;;;;5047662;28;20457;-76
2022/04/15 11:16:02;;;;;;;5.90;5.60;;;;;;;;;;5045207;28;20970;-73
2022/04/15 11:18:44;;;;;;;4.97;4.70;;;;;;;;;;5047209;28;20446;-75
2022/04/15 11:21:22;;;;;;;8.63;5.83;;;;;;;;;;5047053;28;20438;-74
2022/04/15 11:23:50;;;;;;;5.50;5.10;;;;;;;;;;5049193;28;20444;-78
2022/04/15 11:26:16;;;;;;;6.77;6.27;;;;;;;;;;5044976;28;20446;-73
2022/04/15 11:28:44;;;;;;;6.13;5.53;;;;;;;;;;5040707;28;20444;-77
2022/04/15 11:31:28;;;;;;;5.87;5.00;;;;;;;;;;5045085;28;20447;-75
2022/04/15 11:33:56;;;;;;;5.67;5.33;;;;;;;;;;5045429;28;20499;-75
2022/04/15 11:36:23;;;;;;;7.20;6.57;;;;;;;;;;5047498;28;20481;-74
2022/04/15 11:38:49;;;;;;;6.03;5.70;;;;;;;;;;5048582;28;20430;-76
2022/04/15 11:41:22;;;;;;;7.67;7.17;;;;;;;;;;5035894;28;21350;-74
2022/04/15 11:44:02;;;;;;;16.57;6.20;;;;;;;;;;5046536;28;20445;-78
2022/04/15 11:46:48;;;;;;;3.97;3.77;;;;;;;;;;5045873;28;20426;-77
2022/04/15 11:49:14;;;;;;;5.23;4.90;;;;;;;;;;5036321;28;20582;-77
2022/04/15 11:51:45;;;;;;;6.63;6.00;;;;;;;;;;5045646;28;20558;-77
2022/04/15 11:54:11;;;;;;;6.87;4.20;;;;;;;;;;5026010;28;20467;-76
2022/04/15 11:56:37;;;;;;;4.93;4.40;;;;;;;;;;5040234;28;20539;-76
2022/04/15 11:59:04;;;;;;;4.90;4.60;;;;;;;;;;5044708;28;20769;-77
2022/04/15 12:01:34;;;;;;;6.00;4.40;;;;;;;;;;5048108;28;20434;-76
2022/04/15 12:04:00;;;;;;;4.50;4.10;;;;;;;;;;5046244;28;20522;-74
2022/04/15 12:06:26;;;;;;;4.10;3.90;;;;;;;;;;5044268;28;20525;-77
2022/04/15 12:08:53;;;;;;;3.37;3.07;;;;;;;;;;5046337;28;20525;-75
2022/04/15 12:11:22;;;;;;;3.47;3.27;;;;;;;;;;5040008;28;20820;-74
2022/04/15 12:13:53;;;;;;;3.00;2.13;;;;;;;;;;5046743;28;20429;-76
2022/04/15 12:16:19;;;;;;;4.23;2.83;;;;;;;;;;5043641;28;20435;-75
2022/04/15 12:18:46;;;;;;;3.50;3.20;;;;;;;;;;5042363;28;20422;-77
2022/04/15 12:21:12;;;;;;;4.47;4.20;;;;;;;;;;5042736;28;20812;-74
2022/04/15 12:23:38;;;;;;;3.53;3.40;;;;;;;;;;5045580;28;20919;-74
2022/04/15 12:26:06;;;;;;;3.77;3.57;;;;;;;;;;5045261;28;20444;-74
2022/04/15 12:31:28;;;;;;;4.37;4.10;;;;;;;;;;5043517;28;20519;-75
2022/04/15 12:33:54;;;;;;;8.20;4.30;;;;;;;;;;5040421;28;20473;-75
2022/04/15 12:36:20;;;;;;;5.10;4.80;;;;;;;;;;5045773;28;20457;-74
2022/04/15 12:38:59;;;;;;;4.57;4.17;;;;;;;;;;5044814;28;20454;-73
2022/04/15 12:41:24;;;;;;;5.10;4.00;;;;;;;;;;5041728;28;20449;-74
2022/04/15 12:44:10;;;;;;;3.00;2.90;;;;;;;;;;5047459;28;20430;-74
2022/04/15 12:46:37;;;;;;;3.77;3.53;;;;;;;;;;5031476;28;20438;-74
2022/04/15 12:49:03;;;;;;;2.43;2.33;;;;;;;;;;5042229;28;21553;-74
2022/04/15 12:51:38;;;;;;;3.53;3.33;;;;;;;;;;5043371;28;20442;-75
2022/04/15 12:54:05;;;;;;;4.00;3.80;;;;;;;;;;5048489;28;20436;-78
2022/04/15 12:56:31;;;;;;;3.47;3.37;;;;;;;;;;5042553;28;20481;-77
2022/04/15 12:58:57;;;;;;;2.77;2.57;;;;;;;;;;5043406;28;20478;-73
2022/04/15 13:01:23;;;;;;;5.00;3.93;;;;;;;;;;5051071;28;21028;-73
2022/04/15 13:03:54;;;;;;;4.87;3.70;;;;;;;;;;5046502;28;20441;-74
2022/04/15 13:06:22;;;;;;;2.10;2.00;;;;;;;;;;5064854;28;20438;-74
2022/04/15 13:08:48;;;;;;;2.40;2.40;;;;;;;;;;5047607;28;21136;-74
2022/04/15 13:11:14;;;;;;;2.77;2.70;;;;;;;;;;5045526;28;20536;-77
2022/04/15 13:13:40;;;;;;;2.30;2.30;;;;;;;;;;5046049;28;20431;-73
2022/04/15 13:16:06;;;;;;;2.00;1.80;;;;;;;;;;5049126;28;20787;-78
2022/04/15 13:18:32;;;;;;;2.70;2.60;;;;;;;;;;5048660;28;20491;-73
2022/04/15 13:20:58;;;;;;;2.60;2.50;;;;;;;;;;5047434;28;20950;-75
2022/04/15 13:23:24;;;;;;;2.40;2.30;;;;;;;;;;5047758;28;20489;-73
2022/04/15 13:25:52;;;;;;;2.90;2.70;;;;;;;;;;5045461;28;20485;-73
2022/04/15 13:28:18;;;;;;;2.60;2.43;;;;;;;;;;5041040;28;20931;-73
2022/04/15 13:30:45;;;;;;;7.10;2.40;;;;;;;;;;5035802;28;20485;-77
2022/04/15 13:33:11;;;;;;;2.00;1.90;;;;;;;;;;5040902;28;20478;-75
2022/04/15 13:35:37;;;;;;;3.37;1.70;;;;;;;;;;5038522;28;20488;-76
2022/04/15 13:38:03;;;;;;;1.57;1.50;;;;;;;;;;5048049;28;20434;-75
2022/04/15 13:40:29;;;;;;;1.53;1.53;;;;;;;;;;5041767;28;21008;-77
2022/04/15 13:42:56;;;;;;;7.40;1.80;;;;;;;;;;5066033;28;20454;-75
2022/04/15 13:45:23;;;;;;;1.60;1.47;;;;;;;;;;5049346;28;20446;-74
2022/04/15 13:47:49;;;;;;;2.17;2.17;;;;;;;;;;5041141;28;20480;-73
2022/04/15 13:50:15;;;;;;;1.60;1.50;;;;;;;;;;5051567;28;20576;-74
2022/04/15 13:58:11;;;;;;;2.07;1.87;;;;;;;;;;5048077;28;20777;-76
2022/04/15 14:00:38;;;;;;;2.10;2.00;;;;;;;;;;5044554;28;20450;-74
2022/04/15 14:03:03;;;;;;;1.97;1.87;;;;;;;;;;5050376;28;20438;-76
2022/04/15 14:05:29;;;;;;;2.20;2.20;;;;;;;;;;5043435;28;20441;-76
2022/04/15 14:07:55;;;;;;;2.20;1.90;;;;;;;;;;5049776;28;20434;-74
2022/04/15 14:10:21;;;;;;;1.70;1.60;;;;;;;;;;5039298;28;20967;-77
2022/04/15 14:12:50;;;;;;;4.00;2.27;;;;;;;;;;5047416;28;20427;-77
2022/04/15 14:15:18;;;;;;;2.03;2.03;;;;;;;;;;5046819;28;21456;-75
2022/04/15 14:17:44;;;;;;;1.87;1.77;;;;;;;;;;5047305;28;20434;-76
2022/04/15 14:20:10;;;;;;;2.27;2.13;;;;;;;;;;5046655;28;20879;-75
2022/04/15 14:22:38;;;;;;;1.60;1.53;;;;;;;;;;5045416;28;20529;-74
2022/04/15 14:25:04;;;;;;;2.93;2.10;;;;;;;;;;5039798;28;20444;-75
2022/04/15 14:27:30;;;;;;;2.60;2.60;;;;;;;;;;5048423;28;20795;-76
2022/04/15 14:29:56;;;;;;;2.10;2.10;;;;;;;;;;5042040;28;20505;-75
2022/04/15 14:32:22;;;;;;;2.30;2.20;;;;;;;;;;5045076;28;20439;-76
2022/04/15 14:34:52;;;;;;;3.43;2.10;;;;;;;;;;5044606;28;20446;-76
2022/04/15 14:37:18;;;;;;;2.13;2.13;;;;;;;;;;5045892;28;20418;-77
2022/04/15 14:39:46;;;;;;;5.20;3.60;;;;;;;;;;5047847;28;20442;-76
2022/04/15 14:42:12;;;;;;;2.07;2.07;;;;;;;;;;5049025;28;20414;-75
2022/04/15 14:44:38;;;;;;;2.53;2.43;;;;;;;;;;5049739;28;20813;-76
2022/04/15 14:47:04;;;;;;;2.20;2.20;;;;;;;;;;5049588;28;20426;-74
2022/04/15 14:49:31;;;;;;;2.17;1.97;;;;;;;;;;5047335;28;20490;-78
2022/04/15 14:51:57;;;;;;;10.23;1.80;;;;;;;;;;5050438;28;20423;-77